createdAt,value
2024-01-05T00:00:10.441Z,94045.00
2024-01-05T00:01:10.455Z,94046.00
2024-01-05T00:02:13.656Z,94048.00
2024-01-05T00:03:10.485Z,94048.00
2024-01-05T00:04:10.527Z,94049.00
2024-01-05T00:05:10.460Z,94049.00
2024-01-05T00:06:10.511Z,94047.00
2024-01-05T00:07:10.557Z,94048.00
2024-01-05T00:08:10.439Z,94046.00
2024-01-05T00:09:10.470Z,94045.00
2024-01-05T00:10:10.462Z,94041.00
2024-01-05T00:11:10.444Z,94039.00
2024-01-05T00:12:10.503Z,94035.00
2024-01-05T00:13:10.452Z,94035.00
2024-01-05T00:14:10.447Z,94033.00
2024-01-05T00:15:10.539Z,94032.00
2024-01-05T00:16:10.465Z,94031.00
2024-01-05T00:17:10.457Z,94032.00
2024-01-05T00:18:10.531Z,94031.00
2024-01-05T00:19:10.571Z,94034.00
2024-01-05T00:20:10.484Z,94032.00
2024-01-05T00:21:10.487Z,94033.00
2024-01-05T00:22:10.458Z,94035.00
2024-01-05T00:23:10.463Z,94035.00
2024-01-05T00:24:10.503Z,94032.00
2024-01-05T00:25:10.488Z,94034.00
2024-01-05T00:26:10.465Z,94034.00
2024-01-05T00:27:10.514Z,94035.00
2024-01-05T00:28:10.501Z,94037.00
2024-01-05T00:29:10.468Z,94037.00
2024-01-05T00:30:10.538Z,94038.00
2024-01-05T00:31:10.571Z,94037.00
2024-01-05T00:32:10.468Z,94035.00
2024-01-05T00:33:10.614Z,94033.00
2024-01-05T00:34:10.646Z,94031.00
2024-01-05T00:35:10.507Z,94031.00
2024-01-05T00:36:10.488Z,94029.00
2024-01-05T00:37:10.474Z,94025.00
2024-01-05T00:38:10.472Z,94025.00
2024-01-05T00:39:10.528Z,94024.00
2024-01-05T00:40:10.482Z,94024.00
2024-01-05T00:41:10.482Z,94021.00
2024-01-05T00:42:10.518Z,94024.00
2024-01-05T00:43:10.484Z,94023.00
2024-01-05T00:44:10.482Z,94021.00
2024-01-05T00:45:10.580Z,94020.00
2024-01-05T00:46:10.514Z,94017.00
2024-01-05T00:47:10.483Z,94015.00
2024-01-05T00:48:10.697Z,94017.00
2024-01-05T00:49:10.573Z,94016.00
2024-01-05T00:50:10.515Z,94015.00
2024-01-05T00:51:10.534Z,94015.00
2024-01-05T00:52:10.496Z,94012.00
2024-01-05T00:53:10.493Z,94011.00
2024-01-05T00:54:10.544Z,94009.00
2024-01-05T00:55:10.500Z,94006.00
2024-01-05T00:56:10.506Z,94007.00
2024-01-05T00:57:11.828Z,94005.00
2024-01-05T00:58:10.546Z,94010.00
2024-01-05T00:59:10.566Z,94011.00
2024-01-05T01:00:10.661Z,94011.00
2024-01-05T01:01:10.708Z,94013.00
2024-01-05T01:02:10.673Z,94016.00
2024-01-05T01:03:10.758Z,94019.00
2024-01-05T01:04:10.916Z,94017.00
2024-01-05T01:05:10.822Z,94018.00
2024-01-05T01:06:10.835Z,94017.00
2024-01-05T01:07:10.873Z,94014.00
2024-01-05T01:08:10.861Z,94012.00
2024-01-05T01:09:10.931Z,94014.00
2024-01-05T01:10:10.959Z,94013.00
2024-01-05T01:11:10.952Z,94016.00
2024-01-05T01:12:11.038Z,94014.00
2024-01-05T01:13:11.021Z,94010.00
2024-01-05T01:14:11.061Z,94004.00
2024-01-05T01:15:11.198Z,94002.00
2024-01-05T01:16:11.124Z,94000.00
2024-01-05T01:17:11.151Z,94000.00
2024-01-05T01:18:11.285Z,94000.00
2024-01-05T01:19:11.280Z,94001.00
2024-01-05T01:20:11.244Z,94002.00
2024-01-05T01:21:11.300Z,94001.00
2024-01-05T01:22:11.287Z,94000.00
2024-01-05T01:23:11.337Z,93997.00
2024-01-05T01:24:11.351Z,93995.00
2024-01-05T01:25:11.402Z,93990.00
2024-01-05T01:26:11.425Z,93989.00
2024-01-05T01:27:11.475Z,93988.00
2024-01-05T01:28:11.498Z,93990.00
2024-01-05T01:29:11.514Z,93991.00
2024-01-05T01:30:11.601Z,93990.00
2024-01-05T01:31:11.653Z,93987.00
2024-01-05T01:32:11.631Z,93984.00
2024-01-05T01:33:11.736Z,93979.00
2024-01-05T01:34:11.846Z,93978.00
2024-01-05T01:35:11.730Z,93978.00
2024-01-05T01:36:11.789Z,93981.00
2024-01-05T01:37:11.798Z,93983.00
2024-01-05T01:38:11.845Z,93982.00
2024-01-05T01:39:11.859Z,93982.00
2024-01-05T01:40:11.889Z,93984.00
2024-01-05T01:41:11.931Z,93980.00
2024-01-05T01:42:12.067Z,93976.00
2024-01-05T01:43:12.074Z,93975.00
2024-01-05T01:44:12.017Z,93973.00
2024-01-05T01:45:12.084Z,93972.00
2024-01-05T01:46:12.068Z,93971.00
2024-01-05T01:47:12.090Z,93970.00
2024-01-05T01:48:12.216Z,93968.00
2024-01-05T01:49:12.299Z,93967.00
2024-01-05T01:50:12.183Z,93970.00
2024-01-05T01:51:12.244Z,93970.00
2024-01-05T01:52:12.234Z,93970.00
2024-01-05T01:53:12.266Z,93967.00
2024-01-05T01:54:12.343Z,93967.00
2024-01-05T01:55:12.303Z,93969.00
2024-01-05T01:56:12.331Z,93969.00
2024-01-05T01:57:12.391Z,93967.00
2024-01-05T01:58:12.401Z,93961.00
2024-01-05T01:59:12.417Z,93957.00
2024-01-05T02:00:12.498Z,93952.00
2024-01-05T02:01:12.570Z,93952.00
2024-01-05T02:02:12.504Z,93947.00
2024-01-05T02:03:12.661Z,93946.00
2024-01-05T02:04:12.642Z,93942.00
2024-01-05T02:05:12.651Z,93939.00
2024-01-05T02:06:12.651Z,93938.00
2024-01-05T02:07:12.643Z,93939.00
2024-01-05T02:08:12.659Z,93940.00
2024-01-05T02:09:12.735Z,93943.00
2024-01-05T02:10:12.706Z,93946.00
2024-01-05T02:11:12.744Z,93943.00
2024-01-05T02:12:12.819Z,93945.00
2024-01-05T02:13:12.807Z,93941.00
2024-01-05T02:15:01.651Z,93938.00
2024-01-05T02:16:01.602Z,93936.00
2024-01-05T02:17:01.601Z,93938.00
2024-01-05T02:18:01.716Z,93937.00
2024-01-05T02:19:01.756Z,93936.00
2024-01-05T02:20:01.629Z,93939.00
2024-01-05T02:21:01.637Z,93937.00
2024-01-05T02:22:01.633Z,93937.00
2024-01-05T02:23:01.631Z,93933.00
2024-01-05T02:24:01.804Z,93930.00
2024-01-05T02:25:01.701Z,93929.00
2024-01-05T02:26:01.771Z,93923.00
2024-01-05T02:27:01.715Z,93919.00
2024-01-05T02:28:01.610Z,93921.00
2024-01-05T02:29:01.617Z,93921.00
2024-01-05T02:30:01.663Z,93924.00
2024-01-05T02:31:01.717Z,93925.00
2024-01-05T02:32:01.612Z,93927.00
2024-01-05T02:33:01.770Z,93928.00
2024-01-05T02:34:01.741Z,93924.00
2024-01-05T02:35:01.700Z,93924.00
2024-01-05T02:36:01.678Z,93920.00
2024-01-05T02:37:01.633Z,93916.00
2024-01-05T02:38:01.632Z,93915.00
2024-01-05T02:39:01.678Z,93910.00
2024-01-05T02:40:01.663Z,93911.00
2024-01-05T02:41:01.636Z,93910.00
2024-01-05T02:42:01.718Z,93908.00
2024-01-05T02:43:01.638Z,93906.00
2024-01-05T02:44:01.636Z,93907.00
2024-01-05T02:45:01.718Z,93905.00
2024-01-05T02:46:01.645Z,93902.00
2024-01-05T02:47:01.638Z,93898.00
2024-01-05T02:48:01.928Z,93892.00
2024-01-05T02:49:01.918Z,93885.00
2024-01-05T02:50:01.648Z,93878.00
2024-01-05T02:51:01.764Z,93871.00
2024-01-05T02:52:01.633Z,93866.00
2024-01-05T02:53:01.642Z,93867.00
2024-01-05T02:54:01.716Z,93867.00
2024-01-05T02:55:01.671Z,93866.00
2024-01-05T02:56:01.654Z,93865.00
2024-01-05T02:57:01.673Z,93858.00
2024-01-05T02:58:01.732Z,93852.00
2024-01-05T02:59:01.721Z,93844.00
2024-01-05T03:00:01.779Z,93841.00
2024-01-05T03:01:01.801Z,93836.00
2024-01-05T03:02:01.700Z,93833.00
2024-01-05T03:03:01.806Z,93832.00
2024-01-05T03:04:01.933Z,93838.00
2024-01-05T03:05:01.785Z,93843.00
2024-01-05T03:06:01.795Z,93848.00
2024-01-05T03:07:01.717Z,93852.00
2024-01-05T03:08:01.726Z,93849.00
2024-01-05T03:09:01.788Z,93846.00
2024-01-05T03:10:01.779Z,93841.00
2024-01-05T03:11:01.764Z,93835.00
2024-01-05T03:12:01.839Z,93828.00
2024-01-05T03:13:01.872Z,93824.00
2024-01-05T03:14:01.819Z,93820.00
2024-01-05T03:15:01.858Z,93821.00
2024-01-05T03:16:01.869Z,93822.00
2024-01-05T03:17:01.780Z,93823.00
2024-01-05T03:18:02.053Z,93826.00
2024-01-05T03:19:02.103Z,93827.00
2024-01-05T03:20:02.029Z,93828.00
2024-01-05T03:21:01.934Z,93825.00
2024-01-05T03:22:01.946Z,93826.00
2024-01-05T03:23:01.954Z,93820.00
2024-01-05T03:24:01.982Z,93821.00
2024-01-05T03:25:01.990Z,93818.00
2024-01-05T03:26:02.015Z,93815.00
2024-01-05T03:27:02.077Z,93811.00
2024-01-05T03:28:02.066Z,93807.00
2024-01-05T03:29:02.083Z,93804.00
2024-01-05T03:30:02.208Z,93802.00
2024-01-05T03:31:02.285Z,93799.00
2024-01-05T03:32:02.167Z,93796.00
2024-01-05T03:33:02.506Z,93795.00
2024-01-05T03:34:02.478Z,93790.00
2024-01-05T03:35:02.241Z,93787.00
2024-01-05T03:36:02.335Z,93786.00
2024-01-05T03:37:02.317Z,93785.00
2024-01-05T03:38:02.357Z,93785.00
2024-01-05T03:39:02.415Z,93785.00
2024-01-05T03:40:02.399Z,93785.00
2024-01-05T03:41:02.456Z,93783.00
2024-01-05T03:42:02.496Z,93783.00
2024-01-05T03:43:02.459Z,93783.00
2024-01-05T03:44:02.509Z,93785.00
2024-01-05T03:45:02.636Z,93787.00
2024-01-05T03:46:02.589Z,93790.00
2024-01-05T03:47:02.593Z,93794.00
2024-01-05T03:48:02.779Z,93792.00
2024-01-05T03:49:02.790Z,93790.00
2024-01-05T03:50:02.797Z,93788.00
2024-01-05T03:51:02.737Z,93783.00
2024-01-05T03:52:02.710Z,93783.00
2024-01-05T03:53:02.744Z,93782.00
2024-01-05T03:54:02.859Z,93782.00
2024-01-05T03:55:02.877Z,93783.00
2024-01-05T03:56:02.839Z,93786.00
2024-01-05T03:57:02.894Z,93789.00
2024-01-05T03:58:02.906Z,93790.00
2024-01-05T03:59:02.938Z,93794.00
2024-01-05T04:00:03.085Z,93793.00
2024-01-05T04:01:03.292Z,93792.00
2024-01-05T04:02:03.042Z,93789.00
2024-01-05T04:03:03.154Z,93786.00
2024-01-05T04:04:03.275Z,93783.00
2024-01-05T04:05:03.172Z,93775.00
2024-01-05T04:06:03.232Z,93767.00
2024-01-05T04:07:03.198Z,93761.00
2024-01-05T04:08:03.220Z,93758.00
2024-01-05T04:09:03.269Z,93754.00
2024-01-05T04:10:03.281Z,93753.00
2024-01-05T04:11:03.304Z,93751.00
2024-01-05T04:12:03.356Z,93746.00
2024-01-05T04:13:03.358Z,93743.00
2024-01-05T04:14:03.408Z,93737.00
2024-01-05T04:15:03.451Z,93735.00
2024-01-05T04:16:03.463Z,93734.00
2024-01-05T04:17:03.497Z,93734.00
2024-01-05T04:18:03.703Z,93730.00
2024-01-05T04:19:03.747Z,93729.00
2024-01-05T04:20:03.579Z,93729.00
2024-01-05T04:21:03.672Z,93727.00
2024-01-05T04:22:03.655Z,93727.00
2024-01-05T04:23:03.667Z,93726.00
2024-01-05T04:24:03.772Z,93727.00
2024-01-05T04:25:03.766Z,93723.00
2024-01-05T04:26:03.801Z,93718.00
2024-01-05T04:27:03.828Z,93713.00
2024-01-05T04:28:03.835Z,93707.00
2024-01-05T04:29:03.878Z,93706.00
2024-01-05T04:30:04.034Z,93704.00
2024-01-05T04:31:03.950Z,93702.00
2024-01-05T04:32:03.939Z,93702.00
2024-01-05T04:33:04.079Z,93697.00
2024-01-05T04:34:11.494Z,93695.00
2024-01-05T04:35:11.397Z,93697.00
2024-01-05T04:36:11.484Z,93702.00
2024-01-05T04:37:11.408Z,93705.00
2024-01-05T04:38:11.401Z,93706.00
2024-01-05T04:39:11.475Z,93707.00
2024-01-05T04:40:11.419Z,93709.00
2024-01-05T04:41:11.419Z,93708.00
2024-01-05T04:42:11.428Z,93708.00
2024-01-05T04:43:11.447Z,93705.00
2024-01-05T04:44:11.410Z,93701.00
2024-01-05T04:45:11.475Z,93699.00
2024-01-05T04:46:11.472Z,93697.00
2024-01-05T04:47:11.518Z,93701.00
2024-01-05T04:48:11.809Z,93705.00
2024-01-05T04:49:11.630Z,93710.00
2024-01-05T04:50:11.599Z,93713.00
2024-01-05T04:51:11.648Z,93712.00
2024-01-05T04:52:11.662Z,93709.00
2024-01-05T04:53:11.701Z,93704.00
2024-01-05T04:54:12.571Z,93695.00
2024-01-05T04:55:11.748Z,93692.00
2024-01-05T04:56:11.791Z,93691.00
2024-01-05T04:57:11.820Z,93690.00
2024-01-05T04:58:11.849Z,93690.00
2024-01-05T04:59:11.887Z,93690.00
2024-01-05T05:00:11.918Z,93688.00
2024-01-05T05:01:11.959Z,93689.00
2024-01-05T05:02:11.952Z,93688.00
2024-01-05T05:03:12.070Z,93687.00
2024-01-05T05:04:12.057Z,93684.00
2024-01-05T05:05:12.101Z,93678.00
2024-01-05T05:06:12.131Z,93673.00
2024-01-05T05:07:12.108Z,93670.00
2024-01-05T05:08:12.146Z,93676.00
2024-01-05T05:09:12.259Z,93685.00
2024-01-05T05:10:12.204Z,93691.00
2024-01-05T05:11:12.223Z,93700.00
2024-01-05T05:12:12.278Z,93705.00
2024-01-05T05:13:12.303Z,93710.00
2024-01-05T05:14:12.433Z,93713.00
2024-01-05T05:15:12.415Z,93708.00
2024-01-05T05:16:12.361Z,93702.00
2024-01-05T05:17:12.389Z,93697.00
2024-01-05T05:18:12.540Z,93697.00
2024-01-05T05:19:12.658Z,93694.00
2024-01-05T05:20:12.497Z,93697.00
2024-01-05T05:21:12.551Z,93698.00
2024-01-05T05:22:12.540Z,93699.00
2024-01-05T05:23:12.618Z,93698.00
2024-01-05T05:24:12.654Z,93697.00
2024-01-05T05:25:12.637Z,93693.00
2024-01-05T05:26:12.686Z,93694.00
2024-01-05T05:27:12.724Z,93694.00
2024-01-05T05:28:12.743Z,93695.00
2024-01-05T05:29:12.782Z,93701.00
2024-01-05T05:30:12.927Z,93700.00
2024-01-05T05:31:12.867Z,93700.00
2024-01-05T05:32:12.862Z,93696.00
2024-01-05T05:33:12.961Z,93693.00
2024-01-05T05:34:12.973Z,93693.00
2024-01-05T05:35:12.953Z,93692.00
2024-01-05T05:36:13.045Z,93689.00
2024-01-05T05:37:13.017Z,93689.00
2024-01-05T05:38:13.063Z,93691.00
2024-01-05T05:39:13.092Z,93683.00
2024-01-05T05:40:13.117Z,93680.00
2024-01-05T05:41:13.133Z,93675.00
2024-01-05T05:42:13.203Z,93669.00
2024-01-05T05:43:13.211Z,93666.00
2024-01-05T05:44:13.192Z,93667.00
2024-01-05T05:45:13.310Z,93671.00
2024-01-05T05:46:13.260Z,93672.00
2024-01-05T05:47:13.265Z,93672.00
2024-01-05T05:48:13.504Z,93673.00
2024-01-05T05:49:13.427Z,93672.00
2024-01-05T05:50:13.357Z,93671.00
2024-01-05T05:51:13.409Z,93673.00
2024-01-05T05:52:13.390Z,93673.00
2024-01-05T05:53:13.411Z,93674.00
2024-01-05T05:54:13.502Z,93673.00
2024-01-05T05:55:13.507Z,93672.00
2024-01-05T05:56:13.532Z,93667.00
2024-01-05T05:57:13.637Z,93665.00
2024-01-05T05:58:13.561Z,93661.00
2024-01-05T05:59:13.636Z,93659.00
2024-01-05T06:00:13.669Z,93656.00
2024-01-05T06:01:13.653Z,93655.00
2024-01-05T06:02:13.664Z,93655.00
2024-01-05T06:03:14.737Z,93654.00
2024-01-05T06:04:13.798Z,93652.00
2024-01-05T06:05:13.739Z,93653.00
2024-01-05T06:06:13.954Z,93655.00
2024-01-05T06:07:13.813Z,93657.00
2024-01-05T06:08:13.802Z,93662.00
2024-01-05T06:09:13.861Z,93666.00
2024-01-05T06:10:13.859Z,93672.00
2024-01-05T06:11:13.924Z,93675.00
2024-01-05T06:12:13.999Z,93676.00
2024-01-05T06:13:13.936Z,93674.00
2024-01-05T06:14:13.963Z,93673.00
2024-01-05T06:15:14.036Z,93670.00
2024-01-05T06:16:14.035Z,93668.00
2024-01-05T06:17:14.070Z,93666.00
2024-01-05T06:18:14.244Z,93667.00
2024-01-05T06:19:14.263Z,93670.00
2024-01-05T06:20:14.144Z,93670.00
2024-01-05T06:21:14.269Z,93669.00
2024-01-05T06:22:14.219Z,93667.00
2024-01-05T06:23:16.655Z,93668.00
2024-01-05T06:24:14.288Z,93668.00
2024-01-05T06:25:14.267Z,93671.00
2024-01-05T06:26:14.239Z,93673.00
2024-01-05T06:27:21.549Z,93678.00
2024-01-05T06:28:15.358Z,93679.00
2024-01-05T06:29:14.257Z,93681.00
2024-01-05T06:30:14.423Z,93677.00
2024-01-05T06:31:14.314Z,93676.00
2024-01-05T06:32:14.256Z,93673.00
2024-01-05T06:33:14.402Z,93671.00
2024-01-05T06:34:14.325Z,93672.00
2024-01-05T06:35:14.251Z,93674.00
2024-01-05T06:36:14.321Z,93674.00
2024-01-05T06:37:14.287Z,93670.00
2024-01-05T06:38:14.257Z,93670.00
2024-01-05T06:39:14.317Z,93668.00
2024-01-05T06:40:14.284Z,93668.00
2024-01-05T06:41:14.267Z,93666.00
2024-01-05T06:42:14.314Z,93667.00
2024-01-05T06:43:14.256Z,93663.00
2024-01-05T06:44:14.274Z,93663.00
2024-01-05T06:45:14.293Z,93661.00
2024-01-05T06:46:14.271Z,93662.00
2024-01-05T06:47:14.275Z,93663.00
2024-01-05T06:48:14.426Z,93664.00
2024-01-05T06:49:14.471Z,93667.00
2024-01-05T06:50:14.539Z,93665.00
2024-01-05T06:51:14.420Z,93668.00
2024-01-05T06:52:14.405Z,93668.00
2024-01-05T06:53:14.390Z,93669.00
2024-01-05T06:54:14.467Z,93665.00
2024-01-05T06:55:14.414Z,93663.00
2024-01-05T06:56:14.460Z,93662.00
2024-01-05T06:57:14.495Z,93662.00
2024-01-05T06:58:14.482Z,93662.00
2024-01-05T06:59:14.488Z,93662.00
2024-01-05T07:00:14.559Z,93661.00
2024-01-05T07:01:14.576Z,93661.00
2024-01-05T07:02:14.593Z,93658.00
2024-01-05T07:03:14.685Z,93658.00
2024-01-05T07:04:14.661Z,93656.00
2024-01-05T07:05:14.740Z,93656.00
2024-01-05T07:06:14.735Z,93656.00
2024-01-05T07:07:16.974Z,93658.00
2024-01-05T07:08:14.872Z,93661.00
2024-01-05T07:09:14.922Z,93661.00
2024-01-05T07:10:14.911Z,93662.00
2024-01-05T07:11:14.921Z,93666.00
2024-01-05T07:12:14.961Z,93666.00
2024-01-05T07:13:14.984Z,93663.00
2024-01-05T07:14:15.042Z,93666.00
2024-01-05T07:15:15.106Z,93665.00
2024-01-05T07:16:15.095Z,93666.00
2024-01-05T07:17:15.172Z,93663.00
2024-01-05T07:18:15.352Z,93665.00
2024-01-05T07:19:15.322Z,93663.00
2024-01-05T07:20:15.227Z,93667.00
2024-01-05T07:21:15.377Z,93670.00
2024-01-05T07:22:15.283Z,93671.00
2024-01-05T07:23:15.332Z,93672.00
2024-01-05T07:24:15.401Z,93671.00
2024-01-05T07:25:15.389Z,93671.00
2024-01-05T07:26:15.449Z,93664.00
2024-01-05T07:27:15.503Z,93660.00
2024-01-05T07:28:15.496Z,93656.00
2024-01-05T07:29:15.538Z,93652.00
2024-01-05T07:30:15.686Z,93649.00
2024-01-05T07:31:15.647Z,93650.00
2024-01-05T07:32:15.656Z,93648.00
2024-01-05T07:33:15.788Z,93651.00
2024-01-05T07:34:15.751Z,93656.00
2024-01-05T07:35:15.729Z,93658.00
2024-01-05T07:36:15.769Z,93657.00
2024-01-05T07:37:15.804Z,93660.00
2024-01-05T07:38:15.827Z,93656.00
2024-01-05T07:39:15.867Z,93659.00
2024-01-05T07:40:15.879Z,93656.00
2024-01-05T07:41:15.920Z,93658.00
2024-01-05T07:42:15.956Z,93657.00
2024-01-05T07:43:15.980Z,93657.00
2024-01-05T07:44:16.020Z,93654.00
2024-01-05T07:45:16.099Z,93651.00
2024-01-05T07:46:16.091Z,93650.00
2024-01-05T07:47:16.126Z,93649.00
2024-01-05T07:48:16.211Z,93643.00
2024-01-05T07:49:16.293Z,93643.00
2024-01-05T07:50:16.229Z,93638.00
2024-01-05T07:51:16.258Z,93636.00
2024-01-05T07:52:16.284Z,93635.00
2024-01-05T07:53:16.320Z,93635.00
2024-01-05T07:54:16.364Z,93642.00
2024-01-05T07:55:16.388Z,93643.00
2024-01-05T07:56:16.417Z,93644.00
2024-01-05T07:57:16.516Z,93646.00
2024-01-05T07:58:16.480Z,93639.00
2024-01-05T07:59:16.517Z,93639.00
2024-01-05T08:00:16.564Z,93638.00
2024-01-05T08:01:16.648Z,93636.00
2024-01-05T08:02:16.609Z,93636.00
2024-01-05T08:03:16.724Z,93638.00
2024-01-05T08:04:16.788Z,93639.00
2024-01-05T08:05:16.779Z,93639.00
2024-01-05T08:06:16.868Z,93642.00
2024-01-05T08:07:16.782Z,93642.00
2024-01-05T08:08:16.808Z,93641.00
2024-01-05T08:09:16.926Z,93640.00
2024-01-05T08:10:16.905Z,93639.00
2024-01-05T08:11:16.908Z,93637.00
2024-01-05T08:12:18.284Z,93635.00
2024-01-05T08:13:16.964Z,93633.00
2024-01-05T08:14:17.024Z,93629.00
2024-01-05T08:15:17.069Z,93627.00
2024-01-05T08:16:17.114Z,93629.00
2024-01-05T08:17:17.103Z,93630.00
2024-01-05T08:18:17.351Z,93630.00
2024-01-05T08:19:17.251Z,93633.00
2024-01-05T08:20:17.226Z,93635.00
2024-01-05T08:21:17.282Z,93633.00
2024-01-05T08:22:17.316Z,93632.00
2024-01-05T08:23:17.315Z,93628.00
2024-01-05T08:24:17.376Z,93629.00
2024-01-05T08:25:18.335Z,93628.00
2024-01-05T08:26:17.413Z,93632.00
2024-01-05T08:27:17.459Z,93632.00
2024-01-05T08:28:17.490Z,93632.00
2024-01-05T08:29:17.514Z,93630.00
2024-01-05T08:30:17.657Z,93630.00
2024-01-05T08:31:17.753Z,93626.00
2024-01-05T08:32:17.604Z,93627.00
2024-01-05T08:33:17.841Z,93630.00
2024-01-05T08:34:17.850Z,93629.00
2024-01-05T08:35:17.702Z,93627.00
2024-01-05T08:36:17.767Z,93625.00
2024-01-05T08:37:17.772Z,93622.00
2024-01-05T08:38:17.798Z,93618.00
2024-01-05T08:39:17.852Z,93613.00
2024-01-05T08:40:17.889Z,93610.00
2024-01-05T08:41:17.918Z,93610.00
2024-01-05T08:42:18.018Z,93610.00
2024-01-05T08:43:18.041Z,93608.00
2024-01-05T08:44:18.012Z,93608.00
2024-01-05T08:45:18.418Z,93607.00
2024-01-05T08:46:18.114Z,93605.00
2024-01-05T08:47:18.132Z,93610.00
2024-01-05T08:48:18.296Z,93610.00
2024-01-05T08:49:18.335Z,93610.00
2024-01-05T08:50:18.263Z,93613.00
2024-01-05T08:51:18.334Z,93615.00
2024-01-05T08:52:18.302Z,93611.00
2024-01-05T08:53:18.327Z,93612.00
2024-01-05T08:54:18.413Z,93607.00
2024-01-05T08:55:18.408Z,93605.00
2024-01-05T08:56:18.442Z,93604.00
2024-01-05T08:57:18.512Z,93602.00
2024-01-05T08:58:18.538Z,93601.00
2024-01-05T08:59:18.574Z,93602.00
2024-01-05T09:00:18.608Z,93604.00
2024-01-05T09:01:18.696Z,93610.00
2024-01-05T09:02:18.646Z,93613.00
2024-01-05T09:03:18.758Z,93615.00
2024-01-05T09:04:18.820Z,93613.00
2024-01-05T09:05:18.793Z,93611.00
2024-01-05T09:06:18.883Z,93608.00
2024-01-05T09:07:18.816Z,93607.00
2024-01-05T09:08:18.866Z,93609.00
2024-01-05T09:09:18.931Z,93609.00
2024-01-05T09:10:18.943Z,93611.00
2024-01-05T09:11:18.962Z,93609.00
2024-01-05T09:12:19.050Z,93611.00
2024-01-05T09:13:19.014Z,93610.00
2024-01-05T09:14:19.052Z,93613.00
2024-01-05T09:15:19.237Z,93614.00
2024-01-05T09:16:19.124Z,93616.00
2024-01-05T09:17:19.162Z,93615.00
2024-01-05T09:18:19.396Z,93616.00
2024-01-05T09:19:21.916Z,93616.00
2024-01-05T09:20:19.246Z,93615.00
2024-01-05T09:21:19.281Z,93615.00
2024-01-05T09:22:19.245Z,93615.00
2024-01-05T09:23:19.242Z,93617.00
2024-01-05T09:24:19.305Z,93615.00
2024-01-05T09:25:19.261Z,93614.00
2024-01-05T09:26:19.264Z,93614.00
2024-01-05T09:27:19.351Z,93615.00
2024-01-05T09:28:19.247Z,93614.00
2024-01-05T09:29:19.248Z,93615.00
2024-01-05T09:30:19.315Z,93612.00
2024-01-05T09:31:19.393Z,93609.00
2024-01-05T09:32:19.296Z,93609.00
2024-01-05T09:33:19.365Z,93609.00
2024-01-05T09:34:19.380Z,93609.00
2024-01-05T09:35:19.269Z,93609.00
2024-01-05T09:36:19.345Z,93605.00
2024-01-05T09:37:19.251Z,93607.00
2024-01-05T09:38:19.270Z,93609.00
2024-01-05T09:39:19.283Z,93610.00
2024-01-05T09:40:19.276Z,93611.00
2024-01-05T09:41:19.262Z,93610.00
2024-01-05T09:42:19.281Z,93608.00
2024-01-05T09:43:19.257Z,93603.00
2024-01-05T09:44:19.264Z,93605.00
2024-01-05T09:45:19.281Z,93606.00
2024-01-05T09:46:19.273Z,93607.00
2024-01-05T09:47:19.264Z,93604.00
2024-01-05T09:48:19.350Z,93602.00
2024-01-05T09:49:19.460Z,93600.00
2024-01-05T09:50:19.571Z,93601.00
2024-01-05T09:51:19.419Z,93601.00
2024-01-05T09:52:19.271Z,93602.00
2024-01-05T09:53:19.275Z,93601.00
2024-01-05T09:54:19.325Z,93598.00
2024-01-05T09:55:19.277Z,93596.00
2024-01-05T09:56:19.302Z,93594.00
2024-01-05T09:57:19.618Z,93593.00
2024-01-05T09:58:19.284Z,93592.00
2024-01-05T09:59:19.284Z,93590.00
2024-01-05T10:00:19.388Z,93589.00
2024-01-05T10:01:19.368Z,93586.00
2024-01-05T10:02:19.289Z,93589.00
2024-01-05T10:03:19.410Z,93589.00
2024-01-05T10:04:19.324Z,93588.00
2024-01-05T10:05:19.437Z,93585.00
2024-01-05T10:06:19.490Z,93582.00
2024-01-05T10:07:19.300Z,93578.00
2024-01-05T10:08:19.301Z,93578.00
2024-01-05T10:09:19.333Z,93575.00
2024-01-05T10:10:19.314Z,93574.00
2024-01-05T10:11:19.309Z,93575.00
2024-01-05T10:12:19.387Z,93581.00
2024-01-05T10:13:19.314Z,93581.00
2024-01-05T10:14:19.315Z,93586.00
2024-01-05T10:15:19.331Z,93587.00
2024-01-05T10:16:19.310Z,93584.00
2024-01-05T10:17:19.356Z,93584.00
2024-01-05T10:18:23.022Z,93577.00
2024-01-05T10:19:20.560Z,93574.00
2024-01-05T10:20:19.388Z,93572.00
2024-01-05T10:21:19.497Z,93567.00
2024-01-05T10:22:19.401Z,93566.00
2024-01-05T10:23:19.422Z,93563.00
2024-01-05T10:24:21.960Z,93555.00
2024-01-05T10:25:19.440Z,93552.00
2024-01-05T10:26:19.399Z,93545.00
2024-01-05T10:27:19.618Z,93541.00
2024-01-05T10:28:19.409Z,93541.00
2024-01-05T10:29:19.404Z,93541.00
2024-01-05T10:30:19.545Z,93543.00
2024-01-05T10:31:19.520Z,93541.00
2024-01-05T10:32:19.471Z,93540.00
2024-01-05T10:33:19.555Z,93539.00
2024-01-05T10:34:19.530Z,93541.00
2024-01-05T10:35:19.439Z,93544.00
2024-01-05T10:36:19.538Z,93546.00
2024-01-05T10:37:19.426Z,93545.00
2024-01-05T10:38:19.405Z,93544.00
2024-01-05T10:39:19.455Z,93538.00
2024-01-05T10:40:19.400Z,93540.00
2024-01-05T10:41:19.546Z,93541.00
2024-01-05T10:42:19.480Z,93539.00
2024-01-05T10:43:19.432Z,93542.00
2024-01-05T10:44:19.414Z,93537.00
2024-01-05T10:45:19.458Z,93538.00
2024-01-05T10:46:19.414Z,93534.00
2024-01-05T10:47:19.430Z,93529.00
2024-01-05T10:48:19.609Z,93525.00
2024-01-05T10:49:19.580Z,93520.00
2024-01-05T10:50:19.414Z,93515.00
2024-01-05T10:51:19.459Z,93513.00
2024-01-05T10:52:19.422Z,93514.00
2024-01-05T10:53:19.436Z,93520.00
2024-01-05T10:54:19.455Z,93526.00
2024-01-05T10:55:19.443Z,93527.00
2024-01-05T10:56:19.440Z,93530.00
2024-01-05T10:57:19.516Z,93528.00
2024-01-05T10:59:19.427Z,93525.00
2024-01-05T11:00:19.470Z,93522.00
2024-01-05T11:01:19.515Z,93520.00
2024-01-05T11:02:22.392Z,93518.00
2024-01-05T11:03:19.490Z,93522.00
2024-01-05T11:04:19.467Z,93517.00
2024-01-05T11:05:19.587Z,93520.00
2024-01-05T11:06:19.491Z,93517.00
2024-01-05T11:07:19.505Z,93520.00
2024-01-05T11:08:19.461Z,93522.00
2024-01-05T11:09:19.506Z,93519.00
2024-01-05T11:10:19.465Z,93521.00
2024-01-05T11:11:19.461Z,93522.00
2024-01-05T11:12:19.495Z,93523.00
2024-01-05T11:13:19.471Z,93521.00
2024-01-05T11:14:19.496Z,93517.00
2024-01-05T11:15:19.485Z,93514.00
2024-01-05T11:16:19.454Z,93512.00
2024-01-05T11:17:19.458Z,93508.00
2024-01-05T11:18:19.596Z,93511.00
2024-01-05T11:19:19.517Z,93506.00
2024-01-05T11:20:19.466Z,93508.00
2024-01-05T11:21:19.485Z,93507.00
2024-01-05T11:22:19.462Z,93504.00
2024-01-05T11:23:19.479Z,93500.00
2024-01-05T11:24:22.223Z,93494.00
2024-01-05T11:25:19.472Z,93490.00
2024-01-05T11:26:19.470Z,93490.00
2024-01-05T11:27:19.488Z,93489.00
2024-01-05T11:28:19.471Z,93487.00
2024-01-05T11:29:19.476Z,93484.00
2024-01-05T11:30:23.172Z,93476.00
2024-01-05T11:31:19.521Z,93471.00
2024-01-05T11:32:19.535Z,93464.00
2024-01-05T11:33:26.501Z,93460.00
2024-01-05T11:34:20.566Z,93456.00
2024-01-05T11:35:19.515Z,93455.00
2024-01-05T11:36:19.550Z,93456.00
2024-01-05T11:37:19.488Z,93458.00
2024-01-05T11:38:19.474Z,93460.00
2024-01-05T11:39:19.512Z,93460.00
2024-01-05T11:40:19.478Z,93454.00
2024-01-05T11:41:19.517Z,93452.00
2024-01-05T11:42:19.515Z,93451.00
2024-01-05T11:43:19.497Z,93448.00
2024-01-05T11:44:19.530Z,93445.00
2024-01-05T11:45:19.500Z,93443.00
2024-01-05T11:46:21.172Z,93443.00